sensor_id;sensor_type;location;lat;lon;timestamp;temperature;humidity
16102;DHT22;56411;52.964;10.540;2023-08-06T00:00:03;14.70;99.90
16102;DHT22;56411;52.964;10.540;2023-08-06T00:02:31;14.60;99.90
16102;DHT22;56411;52.964;10.540;2023-08-06T00:05:00;14.60;99.90
16102;DHT22;56411;52.964;10.540;2023-08-06T00:07:27;14.60;99.90
16102;DHT22;56411;52.964;10.540;2023-08-06T00:09:54;14.70;99.90
16102;DHT22;56411;52.964;10.540;2023-08-06T00:12:21;14.70;99.90
16102;DHT22;56411;52.964;10.540;2023-08-06T00:14:50;14.70;99.90
16102;DHT22;56411;52.964;10.540;2023-08-06T00:17:17;14.70;99.90
16102;DHT22;56411;52.964;10.540;2023-08-06T00:19:45;14.70;99.90
16102;DHT22;56411;52.964;10.540;2023-08-06T00:22:13;14.70;99.90
16102;DHT22;56411;52.964;10.540;2023-08-06T00:24:41;14.70;99.90
16102;DHT22;56411;52.964;10.540;2023-08-06T00:27:08;14.80;99.90
16102;DHT22;56411;52.964;10.540;2023-08-06T00:29:35;14.70;99.90
16102;DHT22;56411;52.964;10.540;2023-08-06T00:32:02;14.70;99.90
16102;DHT22;56411;52.964;10.540;2023-08-06T00:34:30;14.60;99.90
16102;DHT22;56411;52.964;10.540;2023-08-06T00:36:57;14.60;99.90
16102;DHT22;56411;52.964;10.540;2023-08-06T00:39:25;14.60;99.90
16102;DHT22;56411;52.964;10.540;2023-08-06T00:41:52;14.70;99.90
16102;DHT22;56411;52.964;10.540;2023-08-06T00:44:20;14.70;99.90
16102;DHT22;56411;52.964;10.540;2023-08-06T00:46:48;14.70;99.90
16102;DHT22;56411;52.964;10.540;2023-08-06T00:49:15;14.60;99.90
16102;DHT22;56411;52.964;10.540;2023-08-06T00:51:42;14.60;99.90
16102;DHT22;56411;52.964;10.540;2023-08-06T00:54:10;14.70;99.90
16102;DHT22;56411;52.964;10.540;2023-08-06T00:56:38;14.60;99.90
16102;DHT22;56411;52.964;10.540;2023-08-06T00:59:06;14.70;99.90
16102;DHT22;56411;52.964;10.540;2023-08-06T01:01:34;14.60;99.90
16102;DHT22;56411;52.964;10.540;2023-08-06T01:04:01;14.60;99.90
16102;DHT22;56411;52.964;10.540;2023-08-06T01:06:38;14.60;99.90
16102;DHT22;56411;52.964;10.540;2023-08-06T01:09:15;14.60;99.90
16102;DHT22;56411;52.964;10.540;2023-08-06T01:11:57;14.60;99.90
16102;DHT22;56411;52.964;10.540;2023-08-06T01:14:31;14.70;99.90
16102;DHT22;56411;52.964;10.540;2023-08-06T01:17:00;14.70;99.90
16102;DHT22;56411;52.964;10.540;2023-08-06T01:19:28;14.60;99.90
16102;DHT22;56411;52.964;10.540;2023-08-06T01:21:57;14.60;99.90
16102;DHT22;56411;52.964;10.540;2023-08-06T01:24:24;14.60;99.90
16102;DHT22;56411;52.964;10.540;2023-08-06T01:26:54;14.60;99.90
16102;DHT22;56411;52.964;10.540;2023-08-06T01:29:30;14.60;99.90
16102;DHT22;56411;52.964;10.540;2023-08-06T01:31:58;14.60;99.90
16102;DHT22;56411;52.964;10.540;2023-08-06T01:34:28;14.50;99.90
16102;DHT22;56411;52.964;10.540;2023-08-06T01:37:00;14.40;99.90
16102;DHT22;56411;52.964;10.540;2023-08-06T01:39:27;14.40;99.90
16102;DHT22;56411;52.964;10.540;2023-08-06T01:41:55;14.40;99.90
16102;DHT22;56411;52.964;10.540;2023-08-06T01:44:22;14.50;99.90
16102;DHT22;56411;52.964;10.540;2023-08-06T01:46:49;14.50;99.90
16102;DHT22;56411;52.964;10.540;2023-08-06T01:49:16;14.40;99.90
16102;DHT22;56411;52.964;10.540;2023-08-06T01:51:43;14.40;99.90
16102;DHT22;56411;52.964;10.540;2023-08-06T01:54:12;14.40;99.90
16102;DHT22;56411;52.964;10.540;2023-08-06T01:56:39;14.40;99.90
16102;DHT22;56411;52.964;10.540;2023-08-06T01:59:06;14.40;99.90
16102;DHT22;56411;52.964;10.540;2023-08-06T02:01:34;14.50;99.90
16102;DHT22;56411;52.964;10.540;2023-08-06T02:04:01;14.50;99.90
16102;DHT22;56411;52.964;10.540;2023-08-06T02:06:28;14.50;99.90
16102;DHT22;56411;52.964;10.540;2023-08-06T02:08:55;14.40;99.90
16102;DHT22;56411;52.964;10.540;2023-08-06T02:11:24;14.40;99.90
16102;DHT22;56411;52.964;10.540;2023-08-06T02:13:52;14.40;99.90
16102;DHT22;56411;52.964;10.540;2023-08-06T02:16:19;14.40;99.90
16102;DHT22;56411;52.964;10.540;2023-08-06T02:18:46;14.40;99.90
16102;DHT22;56411;52.964;10.540;2023-08-06T02:21:13;14.40;99.90
16102;DHT22;56411;52.964;10.540;2023-08-06T02:23:40;14.40;99.90
16102;DHT22;56411;52.964;10.540;2023-08-06T02:26:07;14.30;99.90
16102;DHT22;56411;52.964;10.540;2023-08-06T02:28:36;14.30;99.90
16102;DHT22;56411;52.964;10.540;2023-08-06T02:31:03;14.40;99.90
16102;DHT22;56411;52.964;10.540;2023-08-06T02:33:32;14.30;99.90
16102;DHT22;56411;52.964;10.540;2023-08-06T02:36:00;14.40;99.90
16102;DHT22;56411;52.964;10.540;2023-08-06T02:38:29;14.40;99.90
16102;DHT22;56411;52.964;10.540;2023-08-06T02:40:56;14.40;99.90
16102;DHT22;56411;52.964;10.540;2023-08-06T02:43:24;14.40;99.90
16102;DHT22;56411;52.964;10.540;2023-08-06T02:45:56;14.40;99.90
16102;DHT22;56411;52.964;10.540;2023-08-06T02:48:24;14.40;99.90
16102;DHT22;56411;52.964;10.540;2023-08-06T02:50:51;14.40;99.90
16102;DHT22;56411;52.964;10.540;2023-08-06T02:53:18;14.40;99.90
16102;DHT22;56411;52.964;10.540;2023-08-06T02:55:46;14.40;99.90
16102;DHT22;56411;52.964;10.540;2023-08-06T02:58:14;14.40;99.90
16102;DHT22;56411;52.964;10.540;2023-08-06T03:00:42;14.40;99.90
16102;DHT22;56411;52.964;10.540;2023-08-06T03:03:13;14.40;99.90
16102;DHT22;56411;52.964;10.540;2023-08-06T03:05:51;14.40;99.90
16102;DHT22;56411;52.964;10.540;2023-08-06T03:08:19;14.40;99.90
16102;DHT22;56411;52.964;10.540;2023-08-06T03:10:48;14.30;99.90
16102;DHT22;56411;52.964;10.540;2023-08-06T03:13:15;14.30;99.90
16102;DHT22;56411;52.964;10.540;2023-08-06T03:15:42;14.30;99.90
16102;DHT22;56411;52.964;10.540;2023-08-06T03:18:12;14.30;99.90
16102;DHT22;56411;52.964;10.540;2023-08-06T03:20:39;14.30;99.90
16102;DHT22;56411;52.964;10.540;2023-08-06T03:23:06;14.30;99.90
16102;DHT22;56411;52.964;10.540;2023-08-06T03:25:35;14.30;99.90
16102;DHT22;56411;52.964;10.540;2023-08-06T03:28:03;14.30;99.90
16102;DHT22;56411;52.964;10.540;2023-08-06T03:30:30;14.20;99.90
16102;DHT22;56411;52.964;10.540;2023-08-06T03:32:58;14.20;99.90
16102;DHT22;56411;52.964;10.540;2023-08-06T03:35:27;14.20;99.90
16102;DHT22;56411;52.964;10.540;2023-08-06T03:37:55;14.20;99.90
16102;DHT22;56411;52.964;10.540;2023-08-06T03:40:22;14.20;99.90
16102;DHT22;56411;52.964;10.540;2023-08-06T03:42:49;14.20;99.90
16102;DHT22;56411;52.964;10.540;2023-08-06T03:45:17;14.20;99.90
16102;DHT22;56411;52.964;10.540;2023-08-06T03:47:44;14.20;99.90
16102;DHT22;56411;52.964;10.540;2023-08-06T03:50:11;14.20;99.90
16102;DHT22;56411;52.964;10.540;2023-08-06T03:52:39;14.20;99.90
16102;DHT22;56411;52.964;10.540;2023-08-06T03:55:07;14.20;99.90
16102;DHT22;56411;52.964;10.540;2023-08-06T03:57:34;14.20;99.90
16102;DHT22;56411;52.964;10.540;2023-08-06T04:00:02;14.20;99.90
16102;DHT22;56411;52.964;10.540;2023-08-06T04:02:30;14.20;99.90
16102;DHT22;56411;52.964;10.540;2023-08-06T04:04:57;14.20;99.90
16102;DHT22;56411;52.964;10.540;2023-08-06T04:07:25;14.20;99.90
16102;DHT22;56411;52.964;10.540;2023-08-06T04:09:55;14.20;99.90
16102;DHT22;56411;52.964;10.540;2023-08-06T04:12:22;14.20;99.90
16102;DHT22;56411;52.964;10.540;2023-08-06T04:14:50;14.20;99.90
16102;DHT22;56411;52.964;10.540;2023-08-06T04:17:17;14.20;99.90
16102;DHT22;56411;52.964;10.540;2023-08-06T04:19:46;14.20;99.90
16102;DHT22;56411;52.964;10.540;2023-08-06T04:22:14;14.20;99.90
16102;DHT22;56411;52.964;10.540;2023-08-06T04:24:41;14.20;99.90
16102;DHT22;56411;52.964;10.540;2023-08-06T04:27:11;14.20;99.90
16102;DHT22;56411;52.964;10.540;2023-08-06T04:29:39;14.20;99.90
16102;DHT22;56411;52.964;10.540;2023-08-06T04:32:08;14.20;99.90
16102;DHT22;56411;52.964;10.540;2023-08-06T04:34:36;14.20;99.90
16102;DHT22;56411;52.964;10.540;2023-08-06T04:37:04;14.20;99.90
16102;DHT22;56411;52.964;10.540;2023-08-06T04:39:32;14.20;99.90
16102;DHT22;56411;52.964;10.540;2023-08-06T04:41:59;14.20;99.90
16102;DHT22;56411;52.964;10.540;2023-08-06T04:44:28;14.20;99.90
16102;DHT22;56411;52.964;10.540;2023-08-06T04:46:55;14.20;99.90
16102;DHT22;56411;52.964;10.540;2023-08-06T04:49:22;14.20;99.90
16102;DHT22;56411;52.964;10.540;2023-08-06T04:51:49;14.20;99.90
16102;DHT22;56411;52.964;10.540;2023-08-06T04:54:17;14.30;99.90
16102;DHT22;56411;52.964;10.540;2023-08-06T04:56:44;14.30;99.90
16102;DHT22;56411;52.964;10.540;2023-08-06T04:59:12;14.30;99.90
16102;DHT22;56411;52.964;10.540;2023-08-06T05:01:41;14.30;99.90
16102;DHT22;56411;52.964;10.540;2023-08-06T05:04:08;14.40;99.90
16102;DHT22;56411;52.964;10.540;2023-08-06T05:06:35;14.40;99.90
16102;DHT22;56411;52.964;10.540;2023-08-06T05:09:04;14.40;99.90
16102;DHT22;56411;52.964;10.540;2023-08-06T05:11:31;14.40;99.90
16102;DHT22;56411;52.964;10.540;2023-08-06T05:13:59;14.40;99.90
16102;DHT22;56411;52.964;10.540;2023-08-06T05:16:26;14.50;99.90
16102;DHT22;56411;52.964;10.540;2023-08-06T05:18:54;14.50;99.90
16102;DHT22;56411;52.964;10.540;2023-08-06T05:21:21;14.50;99.90
16102;DHT22;56411;52.964;10.540;2023-08-06T05:23:49;14.60;99.90
16102;DHT22;56411;52.964;10.540;2023-08-06T05:26:16;14.60;99.90
16102;DHT22;56411;52.964;10.540;2023-08-06T05:28:45;14.60;99.90
16102;DHT22;56411;52.964;10.540;2023-08-06T05:31:12;14.60;99.90
16102;DHT22;56411;52.964;10.540;2023-08-06T05:33:39;14.60;99.90
16102;DHT22;56411;52.964;10.540;2023-08-06T05:36:08;14.60;99.90
16102;DHT22;56411;52.964;10.540;2023-08-06T05:38:35;14.60;99.90
16102;DHT22;56411;52.964;10.540;2023-08-06T05:41:02;14.60;99.90
16102;DHT22;56411;52.964;10.540;2023-08-06T05:43:29;14.60;99.90
16102;DHT22;56411;52.964;10.540;2023-08-06T05:45:57;14.70;99.90
16102;DHT22;56411;52.964;10.540;2023-08-06T05:48:24;14.80;99.90
16102;DHT22;56411;52.964;10.540;2023-08-06T05:50:52;14.80;99.90
16102;DHT22;56411;52.964;10.540;2023-08-06T05:53:21;14.80;99.90
16102;DHT22;56411;52.964;10.540;2023-08-06T05:55:48;14.80;99.90
16102;DHT22;56411;52.964;10.540;2023-08-06T05:58:15;14.80;99.90
16102;DHT22;56411;52.964;10.540;2023-08-06T06:00:42;14.80;99.90
16102;DHT22;56411;52.964;10.540;2023-08-06T06:03:09;14.90;99.90
16102;DHT22;56411;52.964;10.540;2023-08-06T06:05:38;14.90;99.90
16102;DHT22;56411;52.964;10.540;2023-08-06T06:08:05;15.00;99.90
16102;DHT22;56411;52.964;10.540;2023-08-06T06:10:34;15.10;99.90
16102;DHT22;56411;52.964;10.540;2023-08-06T06:13:02;15.10;99.90
16102;DHT22;56411;52.964;10.540;2023-08-06T06:15:29;15.20;99.90
16102;DHT22;56411;52.964;10.540;2023-08-06T06:17:57;15.20;99.90
16102;DHT22;56411;52.964;10.540;2023-08-06T06:20:24;15.20;99.90
16102;DHT22;56411;52.964;10.540;2023-08-06T06:22:51;15.30;99.90
16102;DHT22;56411;52.964;10.540;2023-08-06T06:25:18;15.30;99.90
16102;DHT22;56411;52.964;10.540;2023-08-06T06:27:47;15.40;99.90
16102;DHT22;56411;52.964;10.540;2023-08-06T06:30:14;15.40;99.90
16102;DHT22;56411;52.964;10.540;2023-08-06T06:32:41;15.40;99.90
16102;DHT22;56411;52.964;10.540;2023-08-06T06:35:08;15.40;99.90
16102;DHT22;56411;52.964;10.540;2023-08-06T06:37:36;15.40;99.90
16102;DHT22;56411;52.964;10.540;2023-08-06T06:40:04;15.50;99.90
16102;DHT22;56411;52.964;10.540;2023-08-06T06:42:31;15.50;99.90
16102;DHT22;56411;52.964;10.540;2023-08-06T06:45:00;15.50;99.90
16102;DHT22;56411;52.964;10.540;2023-08-06T06:47:28;15.50;99.90
16102;DHT22;56411;52.964;10.540;2023-08-06T06:49:55;15.50;99.90
16102;DHT22;56411;52.964;10.540;2023-08-06T06:52:22;15.40;99.90
16102;DHT22;56411;52.964;10.540;2023-08-06T06:54:49;15.40;99.90
16102;DHT22;56411;52.964;10.540;2023-08-06T06:57:17;15.40;99.90
16102;DHT22;56411;52.964;10.540;2023-08-06T06:59:44;15.50;99.90
16102;DHT22;56411;52.964;10.540;2023-08-06T07:02:12;15.40;99.90
16102;DHT22;56411;52.964;10.540;2023-08-06T07:04:40;15.50;99.90
16102;DHT22;56411;52.964;10.540;2023-08-06T07:07:07;15.60;99.90
16102;DHT22;56411;52.964;10.540;2023-08-06T07:09:34;15.70;99.90
16102;DHT22;56411;52.964;10.540;2023-08-06T07:12:01;15.70;99.90
16102;DHT22;56411;52.964;10.540;2023-08-06T07:14:28;15.70;99.90
16102;DHT22;56411;52.964;10.540;2023-08-06T07:16:56;15.80;99.90
16102;DHT22;56411;52.964;10.540;2023-08-06T07:19:24;15.80;99.90
16102;DHT22;56411;52.964;10.540;2023-08-06T07:21:52;15.90;99.90
16102;DHT22;56411;52.964;10.540;2023-08-06T07:24:19;16.00;99.90
16102;DHT22;56411;52.964;10.540;2023-08-06T07:26:46;16.10;99.90
16102;DHT22;56411;52.964;10.540;2023-08-06T07:29:13;16.20;99.90
16102;DHT22;56411;52.964;10.540;2023-08-06T07:31:45;16.30;99.90
16102;DHT22;56411;52.964;10.540;2023-08-06T07:34:12;16.30;99.90
16102;DHT22;56411;52.964;10.540;2023-08-06T07:36:40;16.40;99.90
16102;DHT22;56411;52.964;10.540;2023-08-06T07:39:09;16.50;99.90
16102;DHT22;56411;52.964;10.540;2023-08-06T07:41:36;16.40;99.90
16102;DHT22;56411;52.964;10.540;2023-08-06T07:44:04;16.40;99.90
16102;DHT22;56411;52.964;10.540;2023-08-06T07:46:31;16.40;99.90
16102;DHT22;56411;52.964;10.540;2023-08-06T07:48:58;16.50;99.90
16102;DHT22;56411;52.964;10.540;2023-08-06T07:51:25;16.60;99.90
16102;DHT22;56411;52.964;10.540;2023-08-06T07:53:54;16.60;99.90
16102;DHT22;56411;52.964;10.540;2023-08-06T07:56:21;16.60;99.90
16102;DHT22;56411;52.964;10.540;2023-08-06T07:58:48;16.70;99.90
16102;DHT22;56411;52.964;10.540;2023-08-06T08:01:15;16.80;99.90
16102;DHT22;56411;52.964;10.540;2023-08-06T08:03:42;16.80;99.90
16102;DHT22;56411;52.964;10.540;2023-08-06T08:06:11;16.90;99.90
16102;DHT22;56411;52.964;10.540;2023-08-06T08:08:38;17.00;99.90
16102;DHT22;56411;52.964;10.540;2023-08-06T08:11:07;17.10;99.90
16102;DHT22;56411;52.964;10.540;2023-08-06T08:13:34;17.10;99.90
16102;DHT22;56411;52.964;10.540;2023-08-06T08:16:02;17.20;99.90
16102;DHT22;56411;52.964;10.540;2023-08-06T08:18:29;17.30;99.90
16102;DHT22;56411;52.964;10.540;2023-08-06T08:20:57;17.30;99.90
16102;DHT22;56411;52.964;10.540;2023-08-06T08:23:24;17.30;99.90
16102;DHT22;56411;52.964;10.540;2023-08-06T08:25:51;17.30;99.90
16102;DHT22;56411;52.964;10.540;2023-08-06T08:28:21;17.30;99.90
16102;DHT22;56411;52.964;10.540;2023-08-06T08:30:48;17.40;99.90
16102;DHT22;56411;52.964;10.540;2023-08-06T08:33:15;17.50;99.90
16102;DHT22;56411;52.964;10.540;2023-08-06T08:35:42;17.60;99.90
16102;DHT22;56411;52.964;10.540;2023-08-06T08:38:09;17.70;99.90
16102;DHT22;56411;52.964;10.540;2023-08-06T08:40:40;17.70;99.90
16102;DHT22;56411;52.964;10.540;2023-08-06T08:43:11;17.80;99.90
16102;DHT22;56411;52.964;10.540;2023-08-06T08:45:42;17.90;99.90
16102;DHT22;56411;52.964;10.540;2023-08-06T08:48:12;18.00;99.90
16102;DHT22;56411;52.964;10.540;2023-08-06T08:50:40;18.10;99.90
16102;DHT22;56411;52.964;10.540;2023-08-06T08:53:08;18.40;99.90
16102;DHT22;56411;52.964;10.540;2023-08-06T08:55:36;18.50;99.90
16102;DHT22;56411;52.964;10.540;2023-08-06T08:58:04;18.40;99.90
16102;DHT22;56411;52.964;10.540;2023-08-06T09:00:31;18.50;99.90
16102;DHT22;56411;52.964;10.540;2023-08-06T09:03:01;18.60;99.90
16102;DHT22;56411;52.964;10.540;2023-08-06T09:05:29;18.70;99.90
16102;DHT22;56411;52.964;10.540;2023-08-06T09:08:02;18.70;99.90
16102;DHT22;56411;52.964;10.540;2023-08-06T09:10:31;18.60;99.90
16102;DHT22;56411;52.964;10.540;2023-08-06T09:12:58;18.70;99.90
16102;DHT22;56411;52.964;10.540;2023-08-06T09:15:27;18.70;99.90
16102;DHT22;56411;52.964;10.540;2023-08-06T09:17:55;18.80;99.90
16102;DHT22;56411;52.964;10.540;2023-08-06T09:20:24;19.10;99.90
16102;DHT22;56411;52.964;10.540;2023-08-06T09:22:52;19.10;99.90
16102;DHT22;56411;52.964;10.540;2023-08-06T09:25:22;19.30;99.90
16102;DHT22;56411;52.964;10.540;2023-08-06T09:27:50;19.50;99.90
16102;DHT22;56411;52.964;10.540;2023-08-06T09:30:29;19.60;99.90
16102;DHT22;56411;52.964;10.540;2023-08-06T09:32:57;19.70;99.90
16102;DHT22;56411;52.964;10.540;2023-08-06T09:35:28;19.70;99.90
16102;DHT22;56411;52.964;10.540;2023-08-06T09:38:05;19.70;99.90
16102;DHT22;56411;52.964;10.540;2023-08-06T09:40:34;19.70;99.90
16102;DHT22;56411;52.964;10.540;2023-08-06T09:43:02;19.70;99.90
16102;DHT22;56411;52.964;10.540;2023-08-06T09:45:31;19.80;99.90
16102;DHT22;56411;52.964;10.540;2023-08-06T09:48:00;19.70;99.90
16102;DHT22;56411;52.964;10.540;2023-08-06T09:50:34;19.80;99.90
16102;DHT22;56411;52.964;10.540;2023-08-06T09:53:03;19.90;99.90
16102;DHT22;56411;52.964;10.540;2023-08-06T09:55:32;19.90;99.90
16102;DHT22;56411;52.964;10.540;2023-08-06T09:58:00;19.80;99.90
16102;DHT22;56411;52.964;10.540;2023-08-06T10:00:27;19.90;99.90
16102;DHT22;56411;52.964;10.540;2023-08-06T10:03:00;19.80;99.90
16102;DHT22;56411;52.964;10.540;2023-08-06T10:05:27;19.60;99.90
16102;DHT22;56411;52.964;10.540;2023-08-06T10:07:57;19.60;99.90
16102;DHT22;56411;52.964;10.540;2023-08-06T10:10:24;19.80;99.90
16102;DHT22;56411;52.964;10.540;2023-08-06T10:12:55;20.00;99.90
16102;DHT22;56411;52.964;10.540;2023-08-06T10:15:26;20.00;99.90
16102;DHT22;56411;52.964;10.540;2023-08-06T10:17:56;20.00;99.90
16102;DHT22;56411;52.964;10.540;2023-08-06T10:20:24;20.20;99.90
16102;DHT22;56411;52.964;10.540;2023-08-06T10:23:04;20.40;99.90
16102;DHT22;56411;52.964;10.540;2023-08-06T10:25:33;20.60;99.90
16102;DHT22;56411;52.964;10.540;2023-08-06T10:28:01;20.60;99.90
16102;DHT22;56411;52.964;10.540;2023-08-06T10:30:34;20.50;99.90
16102;DHT22;56411;52.964;10.540;2023-08-06T10:33:08;20.30;99.90
16102;DHT22;56411;52.964;10.540;2023-08-06T10:35:36;20.30;99.90
16102;DHT22;56411;52.964;10.540;2023-08-06T10:38:07;20.10;99.90
16102;DHT22;56411;52.964;10.540;2023-08-06T10:40:35;20.10;99.90
16102;DHT22;56411;52.964;10.540;2023-08-06T10:43:03;20.20;99.90
16102;DHT22;56411;52.964;10.540;2023-08-06T10:45:34;20.40;99.90
16102;DHT22;56411;52.964;10.540;2023-08-06T10:48:02;20.60;99.90
16102;DHT22;56411;52.964;10.540;2023-08-06T10:50:30;20.70;99.90
16102;DHT22;56411;52.964;10.540;2023-08-06T10:52:58;20.80;99.90
16102;DHT22;56411;52.964;10.540;2023-08-06T10:55:32;20.90;99.90
16102;DHT22;56411;52.964;10.540;2023-08-06T10:58:05;21.20;99.90
16102;DHT22;56411;52.964;10.540;2023-08-06T11:00:35;21.30;99.90
16102;DHT22;56411;52.964;10.540;2023-08-06T11:03:03;21.40;99.90
16102;DHT22;56411;52.964;10.540;2023-08-06T11:05:31;21.00;99.90
16102;DHT22;56411;52.964;10.540;2023-08-06T11:08:02;20.60;99.90
16102;DHT22;56411;52.964;10.540;2023-08-06T11:10:33;20.40;99.90
16102;DHT22;56411;52.964;10.540;2023-08-06T11:13:06;20.30;99.90
16102;DHT22;56411;52.964;10.540;2023-08-06T11:15:34;20.40;99.90
16102;DHT22;56411;52.964;10.540;2023-08-06T11:18:01;20.40;99.90
16102;DHT22;56411;52.964;10.540;2023-08-06T11:20:29;20.30;99.90
16102;DHT22;56411;52.964;10.540;2023-08-06T11:22:56;20.40;99.90
16102;DHT22;56411;52.964;10.540;2023-08-06T11:25:24;20.50;99.90
16102;DHT22;56411;52.964;10.540;2023-08-06T11:27:53;20.20;99.90
16102;DHT22;56411;52.964;10.540;2023-08-06T11:30:21;20.00;99.90
16102;DHT22;56411;52.964;10.540;2023-08-06T11:32:49;20.10;99.90
16102;DHT22;56411;52.964;10.540;2023-08-06T11:35:16;20.10;99.90
16102;DHT22;56411;52.964;10.540;2023-08-06T11:37:45;20.30;99.90
16102;DHT22;56411;52.964;10.540;2023-08-06T11:40:14;20.30;99.90
16102;DHT22;56411;52.964;10.540;2023-08-06T11:42:42;20.70;99.90
16102;DHT22;56411;52.964;10.540;2023-08-06T11:45:11;20.80;99.90
16102;DHT22;56411;52.964;10.540;2023-08-06T11:48:14;20.90;99.90
16102;DHT22;56411;52.964;10.540;2023-08-06T11:50:46;21.10;99.90
16102;DHT22;56411;52.964;10.540;2023-08-06T11:53:14;21.40;99.90
16102;DHT22;56411;52.964;10.540;2023-08-06T11:55:44;21.60;99.90
16102;DHT22;56411;52.964;10.540;2023-08-06T11:58:12;22.00;99.90
16102;DHT22;56411;52.964;10.540;2023-08-06T12:00:43;21.90;99.90
16102;DHT22;56411;52.964;10.540;2023-08-06T12:03:10;21.80;99.90
16102;DHT22;56411;52.964;10.540;2023-08-06T12:06:03;21.70;99.90
16102;DHT22;56411;52.964;10.540;2023-08-06T12:08:31;21.70;99.90
16102;DHT22;56411;52.964;10.540;2023-08-06T12:10:59;21.90;99.90
16102;DHT22;56411;52.964;10.540;2023-08-06T12:13:29;22.20;99.90
16102;DHT22;56411;52.964;10.540;2023-08-06T12:16:02;22.30;99.90
16102;DHT22;56411;52.964;10.540;2023-08-06T12:18:32;22.50;99.90
16102;DHT22;56411;52.964;10.540;2023-08-06T12:21:03;22.10;99.90
16102;DHT22;56411;52.964;10.540;2023-08-06T12:23:52;22.40;99.90
16102;DHT22;56411;52.964;10.540;2023-08-06T12:26:38;23.10;99.90
16102;DHT22;56411;52.964;10.540;2023-08-06T12:29:22;23.50;99.90
16102;DHT22;56411;52.964;10.540;2023-08-06T12:36:00;22.80;99.90
16102;DHT22;56411;52.964;10.540;2023-08-06T13:13:39;24.10;99.90
16102;DHT22;56411;52.964;10.540;2023-08-06T13:16:39;24.30;99.90
16102;DHT22;56411;52.964;10.540;2023-08-06T13:51:44;23.20;99.90
16102;DHT22;56411;52.964;10.540;2023-08-06T13:54:52;23.40;99.90
16102;DHT22;56411;52.964;10.540;2023-08-06T13:57:28;23.20;99.90
16102;DHT22;56411;52.964;10.540;2023-08-06T14:00:11;23.70;99.90
16102;DHT22;56411;52.964;10.540;2023-08-06T14:02:52;24.10;99.90
16102;DHT22;56411;52.964;10.540;2023-08-06T14:05:37;24.00;99.90
16102;DHT22;56411;52.964;10.540;2023-08-06T14:08:09;23.50;99.90
16102;DHT22;56411;52.964;10.540;2023-08-06T14:10:37;23.90;99.90
16102;DHT22;56411;52.964;10.540;2023-08-06T14:13:05;24.00;99.90
16102;DHT22;56411;52.964;10.540;2023-08-06T14:15:33;23.80;99.90
16102;DHT22;56411;52.964;10.540;2023-08-06T14:18:02;24.20;99.90
16102;DHT22;56411;52.964;10.540;2023-08-06T14:20:30;24.10;99.90
16102;DHT22;56411;52.964;10.540;2023-08-06T14:22:58;24.10;99.90
16102;DHT22;56411;52.964;10.540;2023-08-06T14:25:45;23.90;99.90
16102;DHT22;56411;52.964;10.540;2023-08-06T14:28:14;23.20;99.90
16102;DHT22;56411;52.964;10.540;2023-08-06T14:30:41;22.70;99.90
16102;DHT22;56411;52.964;10.540;2023-08-06T14:33:09;23.20;99.90
16102;DHT22;56411;52.964;10.540;2023-08-06T14:35:37;24.00;99.90
16102;DHT22;56411;52.964;10.540;2023-08-06T14:38:04;24.20;99.90
16102;DHT22;56411;52.964;10.540;2023-08-06T14:40:31;24.40;99.90
16102;DHT22;56411;52.964;10.540;2023-08-06T14:43:05;24.20;99.90
16102;DHT22;56411;52.964;10.540;2023-08-06T14:45:32;24.00;99.90
16102;DHT22;56411;52.964;10.540;2023-08-06T14:47:59;24.30;99.90
16102;DHT22;56411;52.964;10.540;2023-08-06T14:50:29;24.00;99.90
16102;DHT22;56411;52.964;10.540;2023-08-06T14:52:57;24.10;99.90
16102;DHT22;56411;52.964;10.540;2023-08-06T14:55:26;24.60;99.90
16102;DHT22;56411;52.964;10.540;2023-08-06T14:57:54;25.20;99.90
16102;DHT22;56411;52.964;10.540;2023-08-06T15:00:25;25.70;99.90
16102;DHT22;56411;52.964;10.540;2023-08-06T15:02:55;26.30;99.90
16102;DHT22;56411;52.964;10.540;2023-08-06T15:05:26;26.60;99.90
16102;DHT22;56411;52.964;10.540;2023-08-06T15:07:57;26.70;99.90
16102;DHT22;56411;52.964;10.540;2023-08-06T15:10:25;26.70;99.90
16102;DHT22;56411;52.964;10.540;2023-08-06T15:12:53;26.60;99.90
16102;DHT22;56411;52.964;10.540;2023-08-06T15:15:20;26.30;99.90
16102;DHT22;56411;52.964;10.540;2023-08-06T15:17:52;26.40;99.90
16102;DHT22;56411;52.964;10.540;2023-08-06T15:20:23;26.40;99.90
16102;DHT22;56411;52.964;10.540;2023-08-06T15:22:52;26.80;99.90
16102;DHT22;56411;52.964;10.540;2023-08-06T15:25:20;26.70;99.90
16102;DHT22;56411;52.964;10.540;2023-08-06T15:27:50;26.50;99.90
16102;DHT22;56411;52.964;10.540;2023-08-06T15:30:17;26.10;99.90
16102;DHT22;56411;52.964;10.540;2023-08-06T15:32:45;26.50;99.90
16102;DHT22;56411;52.964;10.540;2023-08-06T15:35:14;26.60;99.90
16102;DHT22;56411;52.964;10.540;2023-08-06T15:37:44;25.40;99.90
16102;DHT22;56411;52.964;10.540;2023-08-06T15:40:12;24.20;99.90
16102;DHT22;56411;52.964;10.540;2023-08-06T15:42:40;23.50;99.90
16102;DHT22;56411;52.964;10.540;2023-08-06T15:45:07;23.20;99.90
16102;DHT22;56411;52.964;10.540;2023-08-06T15:47:35;23.10;99.90
16102;DHT22;56411;52.964;10.540;2023-08-06T15:50:06;22.60;99.90
16102;DHT22;56411;52.964;10.540;2023-08-06T15:52:36;22.20;99.90
16102;DHT22;56411;52.964;10.540;2023-08-06T15:55:04;22.00;99.90
16102;DHT22;56411;52.964;10.540;2023-08-06T15:57:32;21.90;99.90
16102;DHT22;56411;52.964;10.540;2023-08-06T16:00:02;21.90;99.90
16102;DHT22;56411;52.964;10.540;2023-08-06T16:02:30;21.80;99.90
16102;DHT22;56411;52.964;10.540;2023-08-06T16:04:59;21.60;99.90
16102;DHT22;56411;52.964;10.540;2023-08-06T16:07:28;21.10;99.90
16102;DHT22;56411;52.964;10.540;2023-08-06T16:09:57;20.60;99.90
16102;DHT22;56411;52.964;10.540;2023-08-06T16:12:33;20.30;99.90
16102;DHT22;56411;52.964;10.540;2023-08-06T16:15:00;20.30;99.90
16102;DHT22;56411;52.964;10.540;2023-08-06T16:17:28;20.30;99.90
16102;DHT22;56411;52.964;10.540;2023-08-06T16:19:55;20.50;99.90
16102;DHT22;56411;52.964;10.540;2023-08-06T16:22:23;20.50;99.90
16102;DHT22;56411;52.964;10.540;2023-08-06T16:24:51;20.50;99.90
16102;DHT22;56411;52.964;10.540;2023-08-06T16:27:20;20.20;99.90
16102;DHT22;56411;52.964;10.540;2023-08-06T16:29:47;20.20;99.90
16102;DHT22;56411;52.964;10.540;2023-08-06T16:32:15;20.10;99.90
16102;DHT22;56411;52.964;10.540;2023-08-06T16:34:45;19.90;99.90
16102;DHT22;56411;52.964;10.540;2023-08-06T16:37:14;19.90;99.90